Time;durP1;ratioP1;P1;durP2;ratioP2;P2;SDS_P1;SDS_P2;PMS_P1;PMS_P2;Temp;Humidity;BMP_temperature;BMP_pressure;BME280_temperature;BME280_humidity;BME280_pressure;Samples;Min_cycle;Max_cycle;Signal;HPM_P1;HPM_P2
2021/09/18 00:01:52;;;;;;;8.70;8.00;;;18.10;99.90;;;;;;5013767;28;20173;-80
2021/09/18 00:04:18;;;;;;;10.73;8.47;;;18.10;99.90;;;;;;5013906;28;20178;-79
2021/09/18 00:06:44;;;;;;;8.23;7.43;;;18.00;99.90;;;;;;5017344;28;20190;-78
2021/09/18 00:09:09;;;;;;;10.10;8.93;;;18.00;99.90;;;;;;5013170;28;20658;-78
2021/09/18 00:11:35;;;;;;;10.07;8.10;;;17.90;99.90;;;;;;5013495;28;20581;-79
2021/09/18 00:14:01;;;;;;;8.30;7.50;;;17.90;99.90;;;;;;5013520;28;20212;-79
2021/09/18 00:16:27;;;;;;;9.90;8.77;;;17.90;99.90;;;;;;5012873;28;20674;-80
2021/09/18 00:18:52;;;;;;;9.87;8.97;;;17.90;99.90;;;;;;5013184;28;20253;-79
2021/09/18 00:21:18;;;;;;;8.67;7.77;;;17.90;99.90;;;;;;5013945;28;20169;-80
2021/09/18 00:23:44;;;;;;;9.27;8.47;;;17.90;99.90;;;;;;4999457;28;20170;-79
2021/09/18 00:26:10;;;;;;;9.37;8.53;;;17.90;99.90;;;;;;5017531;28;20256;-79
2021/09/18 00:28:37;;;;;;;8.97;8.13;;;17.90;99.90;;;;;;4999303;28;20581;-79
2021/09/18 00:31:03;;;;;;;9.50;8.67;;;17.90;99.90;;;;;;5015784;28;20594;-80
2021/09/18 00:33:29;;;;;;;10.00;9.10;;;17.90;99.90;;;;;;5016140;28;20637;-78
2021/09/18 00:35:55;;;;;;;9.67;8.80;;;17.90;99.90;;;;;;5016726;28;21117;-79
2021/09/18 00:38:20;;;;;;;10.20;9.30;;;17.80;99.90;;;;;;4998303;28;20170;-78
2021/09/18 00:40:46;;;;;;;7.90;7.13;;;17.80;99.90;;;;;;5016632;28;20469;-80
2021/09/18 00:43:12;;;;;;;10.00;9.10;;;17.80;99.90;;;;;;5019255;28;20167;-79
2021/09/18 00:45:38;;;;;;;9.97;7.97;;;17.70;99.90;;;;;;5016241;28;20197;-80
2021/09/18 00:48:05;;;;;;;9.27;8.37;;;17.70;99.90;;;;;;5017093;28;20198;-79
2021/09/18 00:50:31;;;;;;;10.07;8.30;;;17.70;99.90;;;;;;5013633;28;20206;-79
2021/09/18 00:52:58;;;;;;;8.60;7.80;;;17.60;99.90;;;;;;5012447;28;20617;-79
2021/09/18 00:55:25;;;;;;;8.73;7.83;;;17.60;99.90;;;;;;5012789;28;20570;-79
2021/09/18 00:57:51;;;;;;;8.43;7.70;;;17.50;99.90;;;;;;5012343;28;20602;-79
2021/09/18 01:00:17;;;;;;;9.57;8.67;;;17.50;99.90;;;;;;5012571;28;20573;-78
2021/09/18 01:02:43;;;;;;;11.83;9.63;;;17.50;99.90;;;;;;5012460;28;20205;-78
2021/09/18 01:05:10;;;;;;;8.97;8.03;;;17.50;99.90;;;;;;5012279;28;21137;-78
2021/09/18 01:07:37;;;;;;;13.07;9.20;;;17.50;99.90;;;;;;5012059;28;20183;-78
2021/09/18 01:10:05;;;;;;;8.10;7.30;;;17.50;99.90;;;;;;4994684;28;20569;-78
2021/09/18 01:12:31;;;;;;;9.50;7.77;;;17.40;99.90;;;;;;5012354;28;20570;-78
2021/09/18 01:14:56;;;;;;;10.07;9.07;;;17.40;99.90;;;;;;4994391;28;20736;-79
2021/09/18 01:17:22;;;;;;;9.10;8.20;;;17.30;99.90;;;;;;5012120;28;20244;-79
2021/09/18 01:19:48;;;;;;;7.03;6.47;;;17.30;99.90;;;;;;4998177;28;20181;-79
2021/09/18 01:22:23;;;;;;;8.60;7.80;;;17.30;99.90;;;;;;5012783;28;20193;-79
2021/09/18 01:24:48;;;;;;;9.00;8.13;;;17.30;99.90;;;;;;5011186;28;20188;-79
2021/09/18 01:27:14;;;;;;;7.83;7.03;;;17.30;99.90;;;;;;4977988;28;20633;-79
2021/09/18 01:29:42;;;;;;;9.20;8.40;;;17.30;99.90;;;;;;5010798;28;20237;-79
2021/09/18 01:32:08;;;;;;;8.10;7.40;;;17.30;99.90;;;;;;5011965;28;20170;-78
2021/09/18 01:34:34;;;;;;;9.77;8.83;;;17.30;99.90;;;;;;4978171;28;20633;-79
2021/09/18 01:36:59;;;;;;;9.03;7.80;;;17.20;99.90;;;;;;5011977;28;20178;-79
2021/09/18 01:39:27;;;;;;;8.50;7.70;;;17.20;99.90;;;;;;5011708;28;20185;-79
2021/09/18 01:41:53;;;;;;;8.80;8.00;;;17.20;99.90;;;;;;5010779;28;20951;-78
2021/09/18 01:44:19;;;;;;;9.13;8.17;;;17.20;99.90;;;;;;5011027;28;20628;-79
2021/09/18 01:46:45;;;;;;;8.33;7.63;;;17.20;99.90;;;;;;4994364;28;21187;-78
2021/09/18 01:49:12;;;;;;;9.03;8.13;;;17.20;99.90;;;;;;4994151;28;20607;-79
2021/09/18 01:51:40;;;;;;;8.60;7.47;;;17.20;99.90;;;;;;4994003;28;20581;-78
2021/09/18 01:54:06;;;;;;;9.17;7.60;;;17.20;99.90;;;;;;5011805;28;20616;-78
2021/09/18 01:56:32;;;;;;;8.50;7.70;;;17.20;99.90;;;;;;5016100;28;20593;-78
2021/09/18 01:58:57;;;;;;;7.67;6.97;;;17.20;99.90;;;;;;4994539;28;20522;-79
2021/09/18 02:01:23;;;;;;;8.07;7.30;;;17.10;99.90;;;;;;5010621;28;20178;-78
2021/09/18 02:03:49;;;;;;;8.03;7.33;;;17.10;99.90;;;;;;5011652;28;20261;-79
2021/09/18 02:06:16;;;;;;;8.77;7.97;;;17.10;99.90;;;;;;5011534;28;20922;-80
2021/09/18 02:08:42;;;;;;;9.67;8.27;;;17.10;99.90;;;;;;4993746;28;20170;-79
2021/09/18 02:11:08;;;;;;;9.73;7.60;;;17.10;99.90;;;;;;5010638;28;20608;-79
2021/09/18 02:13:34;;;;;;;8.77;7.90;;;17.10;99.90;;;;;;4977587;28;20648;-78
2021/09/18 02:16:00;;;;;;;8.00;7.13;;;17.10;99.90;;;;;;4994003;28;20197;-78
2021/09/18 02:18:26;;;;;;;8.60;7.80;;;17.10;99.90;;;;;;5011236;28;21131;-78
2021/09/18 02:20:52;;;;;;;8.93;8.17;;;17.10;99.90;;;;;;5011509;28;20569;-78
2021/09/18 02:23:18;;;;;;;8.60;7.80;;;17.10;99.90;;;;;;4993999;28;20657;-79
2021/09/18 02:25:44;;;;;;;8.33;7.53;;;17.00;99.90;;;;;;5011466;28;20584;-79
2021/09/18 02:28:10;;;;;;;10.07;9.17;;;17.00;99.90;;;;;;5026999;28;20190;-79
2021/09/18 02:30:37;;;;;;;9.50;8.60;;;17.00;99.90;;;;;;5011306;28;20580;-78
2021/09/18 02:33:04;;;;;;;8.80;8.00;;;17.00;99.90;;;;;;5014465;28;20202;-78
2021/09/18 02:35:31;;;;;;;8.47;7.60;;;17.00;99.90;;;;;;5018275;28;20744;-78
2021/09/18 02:37:59;;;;;;;7.77;7.07;;;16.90;99.90;;;;;;5014876;28;20596;-78
2021/09/18 02:40:26;;;;;;;9.10;8.30;;;16.90;99.90;;;;;;5015043;28;21181;-78
2021/09/18 02:42:58;;;;;;;8.53;7.80;;;16.90;99.90;;;;;;5015150;28;20565;-78
2021/09/18 02:45:24;;;;;;;8.57;7.83;;;17.00;99.90;;;;;;5014979;28;20572;-78
2021/09/18 02:47:51;;;;;;;8.30;7.40;;;16.90;99.90;;;;;;5014563;28;21145;-79
2021/09/18 02:50:18;;;;;;;8.47;7.70;;;16.90;99.90;;;;;;5014740;28;20561;-79
2021/09/18 02:52:44;;;;;;;8.77;7.93;;;16.90;99.90;;;;;;5030129;28;20934;-78
2021/09/18 02:55:12;;;;;;;8.53;7.70;;;16.90;99.90;;;;;;5014664;28;20576;-79
2021/09/18 02:57:38;;;;;;;9.07;8.17;;;16.90;99.90;;;;;;5013092;28;20593;-79
2021/09/18 03:00:06;;;;;;;9.17;8.03;;;16.80;99.90;;;;;;5014830;28;20966;-79
2021/09/18 03:02:32;;;;;;;7.30;6.70;;;16.80;99.90;;;;;;5030566;28;20914;-79
2021/09/18 03:04:57;;;;;;;8.90;7.53;;;16.70;99.90;;;;;;5014903;28;20792;-79
2021/09/18 03:07:23;;;;;;;7.60;7.00;;;16.70;99.90;;;;;;5014761;28;21152;-79
2021/09/18 03:09:49;;;;;;;7.60;6.90;;;16.70;99.90;;;;;;5030016;28;20533;-79
2021/09/18 03:12:17;;;;;;;9.10;7.40;;;16.70;99.90;;;;;;5020061;28;20189;-79
2021/09/18 03:14:43;;;;;;;7.20;6.60;;;16.70;99.90;;;;;;5014890;28;20625;-79
2021/09/18 03:17:09;;;;;;;8.63;7.83;;;16.70;99.90;;;;;;5013745;28;20193;-79
2021/09/18 03:19:35;;;;;;;7.37;6.77;;;16.70;99.90;;;;;;5014568;28;20166;-79
2021/09/18 03:22:01;;;;;;;8.80;7.93;;;16.60;99.90;;;;;;5030361;28;20170;-80
2021/09/18 03:24:27;;;;;;;8.00;7.30;;;16.60;99.90;;;;;;5015169;28;20181;-79
2021/09/18 03:26:52;;;;;;;8.13;7.17;;;16.60;99.90;;;;;;5014949;28;20608;-79
2021/09/18 03:29:18;;;;;;;9.53;8.33;;;16.60;99.90;;;;;;5014034;28;20179;-80
2021/09/18 03:31:44;;;;;;;9.30;8.50;;;16.60;99.90;;;;;;5014272;28;20209;-79
2021/09/18 03:34:10;;;;;;;8.17;7.47;;;16.60;99.90;;;;;;5013995;28;20202;-78
2021/09/18 03:36:36;;;;;;;8.43;7.70;;;16.60;99.90;;;;;;5013946;28;20624;-78
2021/09/18 03:39:02;;;;;;;8.30;7.40;;;16.50;99.90;;;;;;5012477;28;20603;-79
2021/09/18 03:41:28;;;;;;;7.80;7.00;;;16.50;99.90;;;;;;5012772;28;20648;-79
2021/09/18 03:43:53;;;;;;;8.83;7.93;;;16.50;99.90;;;;;;5013286;28;20625;-78
2021/09/18 03:46:19;;;;;;;10.20;8.37;;;16.50;99.90;;;;;;5013919;28;20649;-78
2021/09/18 03:48:45;;;;;;;9.00;8.10;;;16.50;99.90;;;;;;5017161;28;20249;-79
2021/09/18 03:51:11;;;;;;;8.87;8.03;;;16.50;99.90;;;;;;4996310;28;20166;-78
2021/09/18 03:53:36;;;;;;;7.93;7.13;;;16.50;99.90;;;;;;4995890;28;20210;-79
2021/09/18 03:56:02;;;;;;;8.83;8.07;;;16.50;99.90;;;;;;5013447;28;20167;-79
2021/09/18 03:58:28;;;;;;;8.00;7.30;;;16.50;99.90;;;;;;5013228;28;20162;-78
2021/09/18 04:00:53;;;;;;;10.50;7.63;;;16.40;99.90;;;;;;5013494;28;20573;-79
2021/09/18 04:03:19;;;;;;;10.13;8.20;;;16.50;99.90;;;;;;5012422;28;20610;-79
2021/09/18 04:05:45;;;;;;;8.80;8.03;;;16.40;99.90;;;;;;5013374;28;20174;-79
2021/09/18 04:08:11;;;;;;;9.17;8.27;;;16.40;99.90;;;;;;5013267;28;20171;-78
2021/09/18 04:10:38;;;;;;;9.13;8.23;;;16.40;99.90;;;;;;4995873;28;20173;-78
2021/09/18 04:13:05;;;;;;;9.30;8.30;;;16.40;99.90;;;;;;4995785;28;20202;-78
2021/09/18 04:15:31;;;;;;;9.60;8.80;;;16.40;99.90;;;;;;4995551;28;20577;-78
2021/09/18 04:17:57;;;;;;;7.90;7.20;;;16.40;99.90;;;;;;5013090;28;20585;-79
2021/09/18 04:20:23;;;;;;;8.33;7.70;;;16.30;99.90;;;;;;5013210;28;20561;-80
2021/09/18 04:22:49;;;;;;;8.17;7.37;;;16.30;99.90;;;;;;5013244;28;20573;-78
2021/09/18 04:25:15;;;;;;;8.97;8.10;;;16.30;99.90;;;;;;5018187;28;20660;-79
2021/09/18 04:27:41;;;;;;;8.67;7.93;;;16.30;99.90;;;;;;5012727;28;20202;-78
2021/09/18 04:30:07;;;;;;;11.17;7.97;;;16.30;99.90;;;;;;5013268;28;20656;-79
2021/09/18 04:32:33;;;;;;;9.13;8.33;;;16.20;99.90;;;;;;5012930;28;20213;-78
2021/09/18 04:34:59;;;;;;;9.63;8.70;;;16.20;99.90;;;;;;5013888;28;20664;-79
2021/09/18 04:37:24;;;;;;;9.40;8.47;;;16.20;99.90;;;;;;5013246;28;20601;-78
2021/09/18 04:39:50;;;;;;;11.37;9.00;;;16.20;99.90;;;;;;5012688;28;20171;-78
2021/09/18 04:42:16;;;;;;;10.10;9.10;;;16.20;99.90;;;;;;5013046;28;20221;-78
2021/09/18 04:44:43;;;;;;;9.37;8.47;;;16.10;99.90;;;;;;5013416;28;21120;-78
2021/09/18 04:47:09;;;;;;;9.80;8.90;;;16.20;99.90;;;;;;5013044;28;20708;-78
2021/09/18 04:49:35;;;;;;;8.33;7.53;;;16.20;99.90;;;;;;5012336;28;20660;-79
2021/09/18 04:52:00;;;;;;;8.30;7.50;;;16.20;99.90;;;;;;5012553;28;20558;-78
2021/09/18 04:54:26;;;;;;;9.37;8.47;;;16.20;99.90;;;;;;4994283;28;20640;-79
2021/09/18 04:56:52;;;;;;;9.80;8.80;;;16.30;99.90;;;;;;5011276;28;20593;-79
2021/09/18 04:59:17;;;;;;;8.63;7.83;;;16.20;99.90;;;;;;5012332;28;20594;-79
2021/09/18 05:01:43;;;;;;;8.20;7.50;;;16.20;99.90;;;;;;5018536;28;20170;-79
2021/09/18 05:04:09;;;;;;;8.53;7.57;;;16.20;99.90;;;;;;4995099;28;20651;-78
2021/09/18 05:06:35;;;;;;;9.40;8.60;;;16.20;99.90;;;;;;5012385;28;20186;-78
2021/09/18 05:09:00;;;;;;;8.87;8.07;;;16.20;99.90;;;;;;5012098;28;20178;-78
2021/09/18 05:11:26;;;;;;;10.70;9.70;;;16.20;99.90;;;;;;4994969;28;20237;-78
2021/09/18 05:13:52;;;;;;;9.27;8.37;;;16.10;99.90;;;;;;5012134;28;21023;-78
2021/09/18 05:16:18;;;;;;;9.60;8.80;;;16.10;99.90;;;;;;5012316;28;20206;-78
2021/09/18 05:18:43;;;;;;;9.60;8.80;;;16.00;99.90;;;;;;4994376;28;20197;-78
2021/09/18 05:21:09;;;;;;;9.43;8.57;;;16.00;99.90;;;;;;4995052;28;20166;-79
2021/09/18 05:23:35;;;;;;;9.77;8.87;;;16.00;99.90;;;;;;5012163;28;20171;-79
2021/09/18 05:26:00;;;;;;;9.60;8.60;;;16.00;99.90;;;;;;4994408;28;20539;-78
2021/09/18 05:28:26;;;;;;;9.63;8.67;;;16.00;99.90;;;;;;4994451;28;20551;-79
2021/09/18 05:30:52;;;;;;;9.87;8.90;;;15.90;99.90;;;;;;5011914;28;20673;-78
2021/09/18 05:33:17;;;;;;;9.93;9.03;;;15.90;99.90;;;;;;4978317;28;20198;-79
2021/09/18 05:35:43;;;;;;;12.17;8.70;;;15.90;99.90;;;;;;5010701;28;20163;-79
2021/09/18 05:38:09;;;;;;;9.17;8.33;;;16.00;99.90;;;;;;5015725;28;20575;-79
2021/09/18 05:40:34;;;;;;;9.50;8.70;;;15.90;99.90;;;;;;5012320;28;20174;-79
2021/09/18 05:43:00;;;;;;;11.70;9.03;;;16.00;99.90;;;;;;5011876;28;20170;-78
2021/09/18 05:45:26;;;;;;;10.00;8.67;;;15.90;99.90;;;;;;5011824;28;20217;-78
2021/09/18 05:47:52;;;;;;;10.20;9.27;;;15.90;99.90;;;;;;5011485;28;20633;-79
2021/09/18 05:50:18;;;;;;;9.83;8.93;;;15.90;99.90;;;;;;4994234;28;20508;-79
2021/09/18 05:52:43;;;;;;;11.13;10.10;;;15.90;99.90;;;;;;4994127;28;20183;-77
2021/09/18 05:55:09;;;;;;;9.67;8.67;;;15.90;99.90;;;;;;5011567;28;20176;-78
2021/09/18 05:57:35;;;;;;;8.97;8.03;;;16.00;99.90;;;;;;5011631;28;20198;-79
2021/09/18 06:00:01;;;;;;;10.43;9.43;;;15.90;99.90;;;;;;5011454;28;20631;-79
2021/09/18 06:02:29;;;;;;;9.53;8.73;;;16.00;99.90;;;;;;5011864;28;20229;-79
2021/09/18 06:04:56;;;;;;;10.10;9.10;;;16.00;99.90;;;;;;5011696;28;20569;-79
2021/09/18 06:07:22;;;;;;;9.90;9.00;;;16.00;99.90;;;;;;5015415;28;20190;-79
2021/09/18 06:09:47;;;;;;;10.03;9.10;;;16.00;99.90;;;;;;5014267;28;20581;-79
2021/09/18 06:12:13;;;;;;;8.53;7.73;;;16.10;99.90;;;;;;5015656;28;20174;-79
2021/09/18 06:14:39;;;;;;;9.43;8.53;;;16.10;99.90;;;;;;5018789;28;20241;-81
2021/09/18 06:17:05;;;;;;;8.73;7.93;;;16.20;99.90;;;;;;5016723;28;20186;-81
2021/09/18 06:19:30;;;;;;;9.87;9.07;;;16.20;99.90;;;;;;4997653;28;20170;-81
2021/09/18 06:21:56;;;;;;;9.87;8.90;;;16.20;99.90;;;;;;5014483;28;20173;-80
2021/09/18 06:24:22;;;;;;;9.23;8.30;;;16.30;99.90;;;;;;4998242;28;20174;-81
2021/09/18 06:26:47;;;;;;;8.50;7.73;;;16.40;99.90;;;;;;5002537;28;20237;-81
2021/09/18 06:29:16;;;;;;;9.30;8.40;;;16.50;99.90;;;;;;5030529;28;20178;-81
2021/09/18 06:31:42;;;;;;;9.10;8.30;;;16.60;99.90;;;;;;5014141;28;20179;-79
2021/09/18 06:34:08;;;;;;;8.40;7.60;;;16.60;99.90;;;;;;5015509;28;20635;-80
2021/09/18 06:36:33;;;;;;;8.30;7.60;;;16.80;99.90;;;;;;5030533;28;20214;-80
2021/09/18 06:38:59;;;;;;;9.13;8.33;;;16.90;99.90;;;;;;5013980;28;20544;-80
2021/09/18 06:41:25;;;;;;;9.93;8.70;;;17.00;99.90;;;;;;5015483;28;20194;-80
2021/09/18 06:43:51;;;;;;;7.90;7.20;;;17.10;99.90;;;;;;4997612;28;20202;-81
2021/09/18 06:46:17;;;;;;;9.60;7.87;;;17.20;99.90;;;;;;5015437;28;20190;-80
2021/09/18 06:48:42;;;;;;;8.70;7.87;;;17.20;99.90;;;;;;5030596;28;20182;-81
2021/09/18 06:51:08;;;;;;;7.73;6.60;;;17.30;99.90;;;;;;5032604;28;20573;-80
2021/09/18 06:53:34;;;;;;;8.40;7.60;;;17.50;99.90;;;;;;5032709;28;20212;-81
2021/09/18 06:56:00;;;;;;;7.70;7.00;;;17.70;99.90;;;;;;5030627;28;20572;-81
2021/09/18 06:58:26;;;;;;;7.00;6.40;;;17.90;99.90;;;;;;5013599;28;20915;-81
2021/09/18 07:00:52;;;;;;;7.37;6.73;;;18.10;99.90;;;;;;5014539;28;20615;-81
2021/09/18 07:03:18;;;;;;;9.37;8.47;;;18.30;99.90;;;;;;5032166;28;20201;-80
2021/09/18 07:05:44;;;;;;;8.70;8.00;;;18.40;99.90;;;;;;4982777;28;20193;-80
2021/09/18 07:08:10;;;;;;;7.57;6.87;;;18.60;99.90;;;;;;4997308;28;20609;-80
2021/09/18 07:10:35;;;;;;;7.33;6.73;;;18.80;99.90;;;;;;5013435;28;20577;-80
2021/09/18 07:13:02;;;;;;;8.53;7.73;;;19.10;99.90;;;;;;5015036;28;20211;-80
2021/09/18 07:15:27;;;;;;;8.17;7.57;;;19.50;99.90;;;;;;5030780;28;20166;-79
2021/09/18 07:17:53;;;;;;;8.63;8.03;;;19.80;99.90;;;;;;5029675;28;20618;-81
2021/09/18 07:20:19;;;;;;;8.50;7.70;;;20.10;99.90;;;;;;5032092;28;20182;-79
2021/09/18 07:22:45;;;;;;;7.67;6.97;;;20.30;99.90;;;;;;5016183;28;20537;-79
2021/09/18 07:25:11;;;;;;;8.43;7.73;;;20.50;99.90;;;;;;5032762;28;20174;-79
2021/09/18 07:27:37;;;;;;;9.00;7.97;;;20.80;99.90;;;;;;5016433;28;20197;-79
2021/09/18 07:30:04;;;;;;;8.67;7.87;;;21.20;99.90;;;;;;5006403;28;20600;-80
2021/09/18 07:32:30;;;;;;;7.23;6.53;;;21.70;99.90;;;;;;4997067;28;20574;-80
2021/09/18 07:34:56;;;;;;;6.17;5.67;;;22.20;99.90;;;;;;5014098;28;21194;-80
2021/09/18 07:37:22;;;;;;;7.60;6.90;;;22.70;99.90;;;;;;5013966;28;20190;-80
2021/09/18 07:39:49;;;;;;;6.00;5.40;;;23.20;99.90;;;;;;4995962;28;20987;-79
2021/09/18 07:42:14;;;;;;;6.83;6.23;;;23.80;99.90;;;;;;4996549;28;20568;-80
2021/09/18 07:44:40;;;;;;;6.50;6.00;;;24.40;99.90;;;;;;5013954;28;20922;-80
2021/09/18 07:47:06;;;;;;;6.77;6.07;;;25.10;99.90;;;;;;5014030;28;20593;-80
2021/09/18 07:49:32;;;;;;;7.10;6.40;;;25.80;99.90;;;;;;5013575;28;20167;-81
2021/09/18 07:51:58;;;;;;;6.43;5.93;;;26.50;99.90;;;;;;5012559;28;20301;-81
2021/09/18 07:54:23;;;;;;;7.00;6.40;;;27.20;99.90;;;;;;5012501;28;20292;-80
2021/09/18 07:56:49;;;;;;;6.63;6.03;;;27.70;99.90;;;;;;4994849;28;20190;-80
2021/09/18 07:59:15;;;;;;;7.73;7.03;;;28.40;99.90;;;;;;4994736;28;20174;-81
2021/09/18 08:01:40;;;;;;;7.93;7.33;;;28.80;99.90;;;;;;4995980;28;20170;-81
2021/09/18 08:04:06;;;;;;;6.60;6.00;;;29.00;99.90;;;;;;4995989;28;20174;-81
2021/09/18 08:06:34;;;;;;;5.80;5.40;;;29.30;99.90;;;;;;5000982;28;20186;-79
2021/09/18 08:09:06;;;;;;;6.97;6.37;;;29.70;99.90;;;;;;4995968;28;20175;-80
2021/09/18 08:11:33;;;;;;;5.97;5.53;;;29.80;99.90;;;;;;5013419;28;20565;-81
2021/09/18 08:14:00;;;;;;;6.30;5.73;;;30.00;99.90;;;;;;5013243;28;20725;-81
2021/09/18 08:16:27;;;;;;;6.63;6.10;;;30.10;99.90;;;;;;4979564;28;20624;-81
2021/09/18 08:18:53;;;;;;;6.30;5.73;;;30.40;99.90;;;;;;4995196;28;20572;-81
2021/09/18 08:21:21;;;;;;;6.37;5.87;;;30.30;99.90;;;;;;5012240;28;20573;-80
2021/09/18 08:23:46;;;;;;;6.20;5.70;;;30.40;99.90;;;;;;4995877;28;20171;-80
2021/09/18 08:26:13;;;;;;;6.57;5.97;;;30.70;99.90;;;;;;4995548;28;20621;-81
2021/09/18 08:28:39;;;;;;;7.90;6.47;;;30.90;99.90;;;;;;5048480;22;20283;-79
2021/09/18 08:31:05;;;;;;;6.70;6.10;;;30.90;99.90;;;;;;5006762;28;20672;-79
2021/09/18 08:33:32;;;;;;;7.37;6.57;;;31.20;99.90;;;;;;5032706;28;20993;-79
2021/09/18 08:35:58;;;;;;;6.80;6.20;;;31.50;99.90;;;;;;5014910;28;20928;-79
2021/09/18 08:38:24;;;;;;;6.23;5.70;;;31.80;99.90;;;;;;5032060;28;20605;-78
2021/09/18 08:40:51;;;;;;;7.43;6.73;;;32.00;99.90;;;;;;4998351;28;20191;-77
2021/09/18 08:43:18;;;;;;;6.97;6.00;;;32.30;99.90;;;;;;5032792;28;20570;-77
2021/09/18 08:45:45;;;;;;;6.50;6.00;;;32.50;99.60;;;;;;5032929;28;20733;-77
2021/09/18 08:48:12;;;;;;;5.77;5.27;;;32.70;99.20;;;;;;5018128;28;20745;-76
2021/09/18 08:50:37;;;;;;;6.03;5.60;;;32.90;98.40;;;;;;5032154;28;20602;-77
2021/09/18 08:53:04;;;;;;;6.87;6.23;;;33.00;97.20;;;;;;5032403;28;20578;-77
2021/09/18 08:55:30;;;;;;;8.30;7.50;;;32.80;95.80;;;;;;5031281;28;20254;-77
2021/09/18 08:57:55;;;;;;;6.67;5.90;;;32.70;95.20;;;;;;4997256;28;20624;-79
2021/09/18 09:00:31;;;;;;;6.40;5.77;;;32.60;94.60;;;;;;5020466;28;20591;-79
2021/09/18 09:02:58;;;;;;;7.13;6.43;;;32.70;94.80;;;;;;5031655;28;20180;-76
2021/09/18 09:05:29;;;;;;;5.70;5.30;;;32.80;94.70;;;;;;5032124;28;20588;-79
2021/09/18 09:08:17;;;;;;;6.40;5.90;;;32.90;93.70;;;;;;5013395;28;20627;-76
2021/09/18 09:10:45;;;;;;;6.93;6.30;;;33.20;94.20;;;;;;5031209;28;20597;-79
2021/09/18 09:13:13;;;;;;;7.63;6.93;;;33.40;93.60;;;;;;5032002;28;20669;-79
2021/09/18 09:15:39;;;;;;;7.17;6.47;;;33.60;93.00;;;;;;5013994;28;21170;-77
2021/09/18 09:18:23;;;;;;;8.70;6.77;;;33.80;92.50;;;;;;5023377;28;21027;-77
2021/09/18 09:20:51;;;;;;;7.60;6.80;;;34.10;92.10;;;;;;5032259;28;20606;-77
2021/09/18 09:23:21;;;;;;;9.10;8.40;;;34.50;92.00;;;;;;5032153;28;21217;-77
2021/09/18 09:25:49;;;;;;;10.20;9.27;;;34.90;90.70;;;;;;5033473;28;20574;-77
2021/09/18 09:28:32;;;;;;;12.40;11.30;;;35.20;90.00;;;;;;5013579;28;20650;-76
2021/09/18 09:31:27;;;;;;;11.33;10.33;;;35.30;87.00;;;;;;5032054;28;20592;-76
2021/09/18 09:34:14;;;;;;;13.80;12.50;;;35.30;86.00;;;;;;5032030;28;20738;-77
2021/09/18 09:36:49;;;;;;;12.60;11.50;;;35.40;83.60;;;;;;5014111;28;20561;-77
2021/09/18 09:39:23;;;;;;;13.77;12.50;;;35.50;83.50;;;;;;5013896;28;20638;-77
2021/09/18 09:41:52;;;;;;;11.70;10.70;;;35.80;82.70;;;;;;5013889;28;21142;-77
2021/09/18 09:44:18;;;;;;;11.93;10.83;;;36.10;82.10;;;;;;5014726;28;20578;-77
2021/09/18 09:47:05;;;;;;;12.63;11.37;;;36.30;80.10;;;;;;5032335;28;20602;-77
2021/09/18 09:49:57;;;;;;;13.83;12.53;;;36.50;79.50;;;;;;5031955;28;21177;-77
2021/09/18 09:52:32;;;;;;;14.60;13.40;;;36.60;77.10;;;;;;5032507;28;20565;-77
2021/09/18 09:55:10;;;;;;;15.23;13.97;;;36.60;75.10;;;;;;5032004;28;20623;-77
2021/09/18 09:57:37;;;;;;;15.03;13.63;;;36.70;74.90;;;;;;5013990;28;20952;-77
2021/09/18 10:00:12;;;;;;;15.83;14.37;;;36.70;74.60;;;;;;5015546;28;20557;-77
2021/09/18 10:02:40;;;;;;;18.00;16.60;;;36.80;72.10;;;;;;5038705;28;20571;-77
2021/09/18 10:05:11;;;;;;;17.07;15.70;;;36.70;70.70;;;;;;5032516;28;20579;-77
2021/09/18 10:07:37;;;;;;;16.83;15.33;;;36.50;68.90;;;;;;5034415;28;20596;-78
2021/09/18 10:10:05;;;;;;;17.27;15.93;;;36.10;68.00;;;;;;5031461;28;20650;-77
2021/09/18 10:12:31;;;;;;;16.23;14.73;;;35.80;67.50;;;;;;5031127;28;21100;-77
2021/09/18 10:15:01;;;;;;;16.10;14.70;;;35.70;68.00;;;;;;5031160;28;20635;-77
2021/09/18 10:17:27;;;;;;;15.60;14.40;;;35.80;69.10;;;;;;5013012;28;20568;-77
2021/09/18 10:20:04;;;;;;;16.03;14.70;;;35.80;68.00;;;;;;5013218;28;21032;-77
2021/09/18 10:25:19;;;;;;;18.33;16.83;;;35.10;65.20;;;;;;5031240;28;20659;-77
2021/09/18 10:28:12;;;;;;;17.97;16.27;;;35.00;66.10;;;;;;5012964;28;20622;-77
2021/09/18 10:30:44;;;;;;;17.43;15.73;;;34.60;60.40;;;;;;5031277;28;20565;-77
2021/09/18 10:33:33;;;;;;;15.43;14.03;;;34.00;63.90;;;;;;5031220;28;20560;-77
2021/09/18 10:36:09;;;;;;;14.47;13.27;;;33.50;65.80;;;;;;5031298;28;20651;-77
2021/09/18 10:38:42;;;;;;;14.50;13.10;;;33.50;66.80;;;;;;5013846;28;20599;-77
2021/09/18 10:41:13;;;;;;;13.80;12.50;;;33.40;66.10;;;;;;5031420;28;20565;-77
2021/09/18 10:43:42;;;;;;;13.07;11.77;;;33.30;65.50;;;;;;5031044;28;20916;-77
2021/09/18 10:46:11;;;;;;;11.80;10.80;;;33.40;66.70;;;;;;4996951;28;20564;-77
2021/09/18 10:48:44;;;;;;;13.10;12.00;;;33.50;66.80;;;;;;5013413;28;20626;-77
2021/09/18 10:51:48;;;;;;;11.27;10.07;;;33.40;64.90;;;;;;5013598;28;20584;-77
2021/09/18 10:54:15;;;;;;;13.63;12.43;;;33.20;64.60;;;;;;5033809;28;20967;-78
2021/09/18 10:57:13;;;;;;;13.50;12.30;;;33.10;64.00;;;;;;5034513;28;20604;-77
2021/09/18 10:59:47;;;;;;;13.03;11.80;;;32.90;65.30;;;;;;4984180;28;20598;-77
2021/09/18 11:02:35;;;;;;;10.63;9.40;;;33.00;62.50;;;;;;5034538;28;20568;-77
2021/09/18 11:05:03;;;;;;;11.60;10.57;;;32.90;62.90;;;;;;5034346;28;21143;-77
2021/09/18 11:07:47;;;;;;;8.40;7.70;;;32.80;64.30;;;;;;5016837;28;20702;-78
2021/09/18 11:10:20;;;;;;;7.60;7.00;;;32.90;63.00;;;;;;5034662;28;20568;-77
2021/09/18 11:13:08;;;;;;;9.53;8.77;;;33.10;64.60;;;;;;5034025;28;20556;-78
2021/09/18 11:15:56;;;;;;;7.47;6.87;;;33.20;62.50;;;;;;5035580;28;20637;-77
2021/09/18 11:18:39;;;;;;;6.00;5.60;;;33.30;63.70;;;;;;5016058;28;20608;-77
2021/09/18 11:21:17;;;;;;;6.77;6.13;;;33.50;63.60;;;;;;5016664;28;21221;-77
2021/09/18 11:23:51;;;;;;;6.27;5.77;;;33.70;61.40;;;;;;5033867;28;20599;-78
2021/09/18 11:26:41;;;;;;;6.20;5.70;;;33.80;62.30;;;;;;5034306;28;20900;-78
2021/09/18 11:29:29;;;;;;;5.70;5.20;;;33.90;61.90;;;;;;5033243;28;20654;-78
2021/09/18 11:32:01;;;;;;;3.97;3.63;;;34.00;60.30;;;;;;5033978;28;21116;-78
2021/09/18 11:34:30;;;;;;;5.30;4.80;;;34.10;60.70;;;;;;5016103;28;20963;-77
2021/09/18 11:36:58;;;;;;;5.20;4.73;;;34.20;60.70;;;;;;5033663;28;20928;-77
2021/09/18 11:39:39;;;;;;;6.70;3.80;;;34.20;60.20;;;;;;5033686;28;20695;-78
2021/09/18 11:42:25;;;;;;;4.57;3.53;;;34.20;59.60;;;;;;5033741;28;20644;-77
2021/09/18 11:44:57;;;;;;;4.70;3.77;;;34.20;59.20;;;;;;5033068;28;20584;-78
2021/09/18 11:47:40;;;;;;;4.93;3.63;;;34.20;58.40;;;;;;5033518;28;20590;-77
2021/09/18 11:50:30;;;;;;;4.17;3.87;;;34.00;57.90;;;;;;5033410;28;20675;-77
2021/09/18 11:52:58;;;;;;;4.10;3.30;;;33.60;57.90;;;;;;5035016;28;21016;-78
2021/09/18 11:55:28;;;;;;;3.50;3.20;;;33.20;56.80;;;;;;5033336;28;20717;-78
2021/09/18 11:58:04;;;;;;;3.40;3.10;;;32.90;57.60;;;;;;5033263;28;20622;-77
2021/09/18 12:00:30;;;;;;;2.90;2.70;;;32.70;57.60;;;;;;5033314;28;20578;-77
2021/09/18 12:02:57;;;;;;;3.67;3.30;;;32.40;57.70;;;;;;5015602;28;20630;-77
2021/09/18 12:05:24;;;;;;;3.87;3.50;;;32.10;57.90;;;;;;5015355;28;20595;-78
2021/09/18 12:07:51;;;;;;;4.70;4.30;;;31.80;57.80;;;;;;5033095;28;20687;-77
2021/09/18 12:10:19;;;;;;;3.30;3.00;;;31.50;57.60;;;;;;5033692;28;20560;-77
2021/09/18 12:12:48;;;;;;;3.20;2.63;;;31.30;58.30;;;;;;5015612;28;20576;-78
2021/09/18 12:15:15;;;;;;;3.63;3.33;;;31.20;58.80;;;;;;4999205;28;20616;-77
2021/09/18 12:17:41;;;;;;;4.47;4.07;;;31.20;59.20;;;;;;5015236;28;20639;-77
2021/09/18 12:20:12;;;;;;;3.80;3.50;;;31.10;59.30;;;;;;5015356;28;20593;-78
2021/09/18 12:22:38;;;;;;;4.50;4.10;;;31.20;59.50;;;;;;5033227;28;20574;-77
2021/09/18 12:25:05;;;;;;;5.07;4.57;;;31.30;59.90;;;;;;5032981;28;20648;-77
2021/09/18 12:27:33;;;;;;;3.80;3.50;;;31.40;60.30;;;;;;4998911;28;20673;-78
2021/09/18 12:30:14;;;;;;;4.50;3.70;;;31.40;60.30;;;;;;4998979;28;20589;-78
2021/09/18 12:32:39;;;;;;;4.13;3.73;;;31.60;59.90;;;;;;5033134;28;20585;-78
2021/09/18 12:35:10;;;;;;;4.00;3.30;;;31.70;59.90;;;;;;5014736;28;21038;-78
2021/09/18 12:37:41;;;;;;;4.10;3.70;;;31.60;59.10;;;;;;5032552;28;20589;-78
2021/09/18 12:40:19;;;;;;;3.90;3.60;;;31.50;59.90;;;;;;5032454;28;20574;-78
2021/09/18 12:43:08;;;;;;;4.00;3.60;;;31.50;59.10;;;;;;5032719;28;20976;-78
2021/09/18 12:45:36;;;;;;;4.53;3.60;;;31.40;59.10;;;;;;5032401;28;21024;-78
2021/09/18 12:48:20;;;;;;;3.80;3.20;;;31.50;59.20;;;;;;5032084;28;20665;-78
2021/09/18 12:51:01;;;;;;;3.37;2.83;;;31.40;59.50;;;;;;5031235;28;20584;-78
2021/09/18 12:53:32;;;;;;;2.90;2.40;;;31.30;58.60;;;;;;5031279;28;20957;-78